Time;durP1;ratioP1;P1;durP2;ratioP2;P2;SDS_P1;SDS_P2;PMS_P1;PMS_P2;Temp;Humidity;BMP_temperature;BMP_pressure;BME280_temperature;BME280_humidity;BME280_pressure;Samples;Min_cycle;Max_cycle;Signal;HPM_P1;HPM_P2
2021/08/08 00:00:06;;;;;;;2.00;1.90;;;14.60;99.90;;;;;;4995328;28;20215;-67
2021/08/08 00:02:36;;;;;;;2.93;1.93;;;14.60;99.90;;;;;;4995383;28;20202;-67
2021/08/08 00:05:02;;;;;;;2.23;2.03;;;14.60;99.90;;;;;;4995492;28;20961;-67
2021/08/08 00:07:28;;;;;;;2.90;1.90;;;14.60;99.90;;;;;;4995530;28;20418;-67
2021/08/08 00:09:53;;;;;;;2.20;2.00;;;14.50;99.90;;;;;;4994270;28;20468;-67
2021/08/08 00:12:19;;;;;;;2.53;2.13;;;14.40;99.90;;;;;;4995166;28;20203;-68
2021/08/08 00:14:44;;;;;;;2.00;1.90;;;14.40;99.90;;;;;;4995429;28;20172;-66
2021/08/08 00:17:10;;;;;;;3.20;2.10;;;14.30;99.90;;;;;;4995229;28;20176;-67
2021/08/08 00:19:35;;;;;;;1.97;1.83;;;14.30;99.90;;;;;;4994956;28;20172;-67
2021/08/08 00:22:01;;;;;;;4.33;2.00;;;14.30;99.90;;;;;;4995190;28;20168;-66
2021/08/08 00:24:26;;;;;;;3.40;2.10;;;14.40;99.90;;;;;;4995100;28;20254;-67
2021/08/08 00:26:52;;;;;;;2.00;1.80;;;14.40;99.90;;;;;;4995152;28;20221;-67
2021/08/08 00:29:19;;;;;;;1.93;1.73;;;14.40;99.90;;;;;;4994017;28;20179;-67
2021/08/08 00:31:44;;;;;;;2.70;1.80;;;14.40;99.90;;;;;;4975565;28;20572;-67
2021/08/08 00:34:10;;;;;;;4.37;2.00;;;14.40;99.90;;;;;;4975438;28;20443;-67
2021/08/08 00:36:36;;;;;;;6.63;3.20;;;14.40;99.90;;;;;;4975520;28;20184;-68
2021/08/08 00:39:03;;;;;;;4.23;2.63;;;14.40;99.90;;;;;;4957830;28;20242;-68
2021/08/08 00:41:28;;;;;;;3.50;2.70;;;14.40;99.90;;;;;;4975435;28;20176;-67
2021/08/08 00:43:54;;;;;;;1.83;1.73;;;14.30;99.90;;;;;;4975147;28;20465;-67
2021/08/08 00:46:19;;;;;;;2.30;1.70;;;14.30;99.90;;;;;;4975260;28;20179;-67
2021/08/08 00:48:45;;;;;;;2.00;1.90;;;14.30;99.90;;;;;;4975252;28;20172;-67
2021/08/08 00:51:10;;;;;;;2.20;1.90;;;14.30;99.90;;;;;;4975321;28;20524;-67
2021/08/08 00:53:36;;;;;;;3.60;1.70;;;14.30;99.90;;;;;;4975165;28;20709;-67
2021/08/08 00:56:02;;;;;;;2.27;2.07;;;14.30;99.90;;;;;;4975195;28;20664;-67
2021/08/08 00:58:28;;;;;;;5.37;2.00;;;14.30;99.90;;;;;;4974724;28;20184;-67
2021/08/08 01:00:58;;;;;;;8.40;2.40;;;14.30;99.90;;;;;;4974987;28;20203;-68
2021/08/08 01:03:26;;;;;;;3.33;2.23;;;14.30;99.90;;;;;;4974904;28;20444;-69
2021/08/08 01:06:04;;;;;;;2.70;2.20;;;14.30;99.90;;;;;;4974982;28;20490;-67
2021/08/08 01:08:30;;;;;;;3.40;1.90;;;14.30;99.90;;;;;;4974623;28;20913;-67
2021/08/08 01:10:56;;;;;;;2.90;2.20;;;14.20;99.90;;;;;;4974918;28;20415;-66
2021/08/08 01:13:23;;;;;;;6.10;2.10;;;14.20;99.90;;;;;;4974430;28;20487;-67
2021/08/08 01:15:50;;;;;;;2.23;1.87;;;14.20;99.90;;;;;;4974750;28;20447;-68
2021/08/08 01:18:17;;;;;;;2.30;2.10;;;14.20;99.90;;;;;;4974601;28;20763;-67
2021/08/08 01:20:44;;;;;;;2.07;1.87;;;14.20;99.90;;;;;;4974547;28;20826;-67
2021/08/08 01:23:12;;;;;;;1.87;1.77;;;14.10;99.90;;;;;;4974576;28;20440;-66
2021/08/08 01:25:39;;;;;;;2.83;1.30;;;14.10;99.90;;;;;;4974684;28;20431;-67
2021/08/08 01:28:05;;;;;;;3.87;2.10;;;14.00;99.90;;;;;;4974333;28;20491;-67
2021/08/08 01:30:30;;;;;;;2.73;1.90;;;14.00;99.90;;;;;;4984689;28;20429;-67
2021/08/08 01:33:02;;;;;;;2.80;2.00;;;14.00;99.90;;;;;;4993774;28;20439;-67
2021/08/08 01:35:27;;;;;;;1.47;1.37;;;14.10;99.90;;;;;;4993768;28;20670;-66
2021/08/08 01:37:53;;;;;;;2.20;1.90;;;14.20;99.90;;;;;;4993765;28;20426;-67
2021/08/08 01:40:54;;;;;;;5.80;1.50;;;14.30;99.90;;;;;;4993408;28;20172;-68
2021/08/08 01:43:26;;;;;;;3.43;1.70;;;14.30;99.90;;;;;;4972952;28;20203;-67
2021/08/08 01:45:56;;;;;;;2.13;1.93;;;14.40;99.90;;;;;;4993661;28;20425;-68
2021/08/08 01:48:22;;;;;;;2.63;2.00;;;14.40;99.90;;;;;;4993464;28;20419;-68
2021/08/08 01:50:48;;;;;;;2.80;1.50;;;14.50;99.90;;;;;;4993332;28;20415;-67
2021/08/08 01:53:15;;;;;;;3.37;1.77;;;14.50;99.90;;;;;;4993415;28;20442;-68
2021/08/08 01:55:41;;;;;;;1.90;1.67;;;14.40;99.90;;;;;;4993382;28;20180;-67
2021/08/08 01:58:07;;;;;;;3.00;1.60;;;14.40;99.90;;;;;;4993386;28;20427;-67
2021/08/08 02:00:33;;;;;;;3.27;1.80;;;14.30;99.90;;;;;;4975640;28;20660;-67
2021/08/08 02:02:59;;;;;;;3.47;1.30;;;14.30;99.90;;;;;;4993286;28;20444;-67
2021/08/08 02:05:28;;;;;;;1.97;1.33;;;14.20;99.90;;;;;;4993085;28;20525;-66
2021/08/08 02:07:53;;;;;;;2.60;1.90;;;14.20;99.90;;;;;;4993542;28;20222;-67
2021/08/08 02:10:19;;;;;;;4.00;1.80;;;14.20;99.90;;;;;;4992953;28;20411;-69
2021/08/08 02:12:45;;;;;;;2.60;1.90;;;14.10;99.90;;;;;;4993064;28;20203;-67
2021/08/08 02:15:11;;;;;;;2.90;1.77;;;14.10;99.90;;;;;;4993095;28;20212;-67
2021/08/08 02:17:40;;;;;;;2.87;2.10;;;14.10;99.90;;;;;;4993092;28;20645;-67
2021/08/08 02:20:09;;;;;;;6.10;1.90;;;14.10;99.90;;;;;;4992672;28;20419;-67
2021/08/08 02:22:35;;;;;;;1.60;1.50;;;14.00;99.90;;;;;;4992967;28;20492;-67
2021/08/08 02:25:01;;;;;;;4.17;1.57;;;14.00;99.90;;;;;;4992914;28;20545;-67
2021/08/08 02:27:27;;;;;;;2.57;1.50;;;14.00;99.90;;;;;;4992916;28;20176;-68
2021/08/08 02:29:53;;;;;;;2.70;1.87;;;14.00;99.90;;;;;;4987203;28;20551;-67
2021/08/08 02:32:19;;;;;;;2.77;1.80;;;14.00;99.90;;;;;;4973177;28;21043;-67
2021/08/08 02:34:44;;;;;;;1.53;1.43;;;14.10;99.90;;;;;;4973194;28;20168;-67
2021/08/08 02:37:10;;;;;;;2.70;2.50;;;14.20;99.90;;;;;;4973434;28;20180;-67
2021/08/08 02:39:35;;;;;;;2.20;2.10;;;14.20;99.90;;;;;;4973050;28;20642;-69
2021/08/08 02:42:01;;;;;;;5.03;1.50;;;14.20;99.90;;;;;;4973345;28;20172;-67
2021/08/08 02:44:27;;;;;;;2.90;2.00;;;14.20;99.90;;;;;;4973219;28;20239;-67
2021/08/08 02:46:52;;;;;;;2.10;1.80;;;14.20;99.90;;;;;;4973295;28;20175;-69
2021/08/08 02:49:18;;;;;;;4.70;1.90;;;14.20;99.90;;;;;;4972867;28;20165;-67
2021/08/08 02:51:44;;;;;;;2.57;2.00;;;14.20;99.90;;;;;;4973203;28;20211;-67
2021/08/08 02:54:13;;;;;;;1.83;1.73;;;14.10;99.90;;;;;;4973091;28;20669;-67
2021/08/08 02:56:39;;;;;;;6.17;1.40;;;14.10;99.90;;;;;;4973195;28;20171;-67
2021/08/08 02:59:05;;;;;;;3.83;1.93;;;14.00;99.90;;;;;;4972849;28;20941;-67
2021/08/08 03:01:30;;;;;;;2.10;1.90;;;13.90;99.90;;;;;;4973140;28;20419;-67
2021/08/08 03:03:56;;;;;;;3.70;1.73;;;13.90;99.90;;;;;;4972809;28;20208;-66
2021/08/08 03:06:21;;;;;;;2.60;1.60;;;13.90;99.90;;;;;;4973185;28;20688;-66
2021/08/08 03:08:47;;;;;;;4.13;2.20;;;13.90;99.90;;;;;;4972820;28;20557;-67
2021/08/08 03:11:13;;;;;;;1.90;1.80;;;13.90;99.90;;;;;;4955813;28;20222;-67
2021/08/08 03:13:39;;;;;;;2.20;2.00;;;13.90;99.90;;;;;;4972778;28;20211;-67
2021/08/08 03:16:05;;;;;;;2.30;2.10;;;13.90;99.90;;;;;;4973098;28;20176;-67
2021/08/08 03:18:31;;;;;;;7.23;2.40;;;13.90;99.90;;;;;;4972709;28;20263;-66
2021/08/08 03:20:56;;;;;;;4.50;2.20;;;13.80;99.90;;;;;;4973097;28;20799;-67
2021/08/08 03:23:22;;;;;;;2.60;2.40;;;13.90;99.90;;;;;;4972994;28;20435;-67
2021/08/08 03:25:48;;;;;;;2.30;1.90;;;13.80;99.90;;;;;;4972963;28;20247;-67
2021/08/08 03:28:13;;;;;;;3.03;2.27;;;13.80;99.90;;;;;;4972818;28;20264;-67
2021/08/08 03:30:39;;;;;;;5.37;1.90;;;13.80;99.90;;;;;;4984190;28;20549;-67
2021/08/08 03:33:04;;;;;;;5.17;2.30;;;13.70;99.90;;;;;;4992134;28;20202;-67
2021/08/08 03:35:30;;;;;;;2.20;1.90;;;13.70;99.90;;;;;;4992266;28;20195;-67
2021/08/08 03:37:56;;;;;;;3.77;2.77;;;13.70;99.90;;;;;;4992256;28;20180;-67
2021/08/08 03:40:21;;;;;;;2.30;2.20;;;13.70;99.90;;;;;;4991889;28;20530;-67
2021/08/08 03:42:47;;;;;;;8.00;2.97;;;13.70;99.90;;;;;;4992084;28;20631;-67
2021/08/08 03:45:13;;;;;;;3.80;2.30;;;13.70;99.90;;;;;;4993221;28;20258;-66
2021/08/08 03:47:38;;;;;;;2.60;1.83;;;13.70;99.90;;;;;;4995775;28;20182;-67
2021/08/08 03:50:05;;;;;;;4.67;2.43;;;13.70;99.90;;;;;;4995711;28;20704;-67
2021/08/08 03:52:30;;;;;;;3.40;2.00;;;13.70;99.90;;;;;;4995729;28;20219;-67
2021/08/08 03:54:56;;;;;;;3.87;1.90;;;13.70;99.90;;;;;;4995726;28;20958;-67
2021/08/08 03:57:21;;;;;;;2.97;2.67;;;13.60;99.90;;;;;;4995682;28;20195;-66
2021/08/08 03:59:47;;;;;;;6.10;2.00;;;13.60;99.90;;;;;;4995400;28;20190;-67
2021/08/08 04:02:12;;;;;;;2.63;1.93;;;13.60;99.90;;;;;;4995447;28;20176;-66
2021/08/08 04:04:38;;;;;;;4.93;2.27;;;13.50;99.90;;;;;;4995496;28;20234;-66
2021/08/08 04:07:03;;;;;;;2.23;1.87;;;13.50;99.90;;;;;;4995513;28;20313;-67
2021/08/08 04:09:29;;;;;;;2.03;1.90;;;13.50;99.90;;;;;;4995173;28;20684;-66
2021/08/08 04:11:54;;;;;;;3.27;1.90;;;13.40;99.90;;;;;;4995452;28;20179;-67
2021/08/08 04:14:20;;;;;;;3.10;2.20;;;13.40;99.90;;;;;;4992828;23;20235;-66
2021/08/08 04:16:46;;;;;;;3.70;2.10;;;13.40;99.90;;;;;;4960880;28;20187;-66
2021/08/08 04:19:11;;;;;;;2.47;2.00;;;13.40;99.90;;;;;;4956299;29;20177;-66
2021/08/08 04:21:37;;;;;;;3.17;2.73;;;13.40;99.90;;;;;;4956546;29;20177;-66
2021/08/08 04:24:02;;;;;;;2.73;2.53;;;13.30;99.90;;;;;;4956496;28;20216;-66
2021/08/08 04:26:28;;;;;;;5.10;2.30;;;13.30;99.90;;;;;;4956501;29;20192;-66
2021/08/08 04:28:53;;;;;;;4.50;2.07;;;13.40;99.90;;;;;;4956095;29;20184;-67
2021/08/08 04:31:19;;;;;;;4.00;2.60;;;13.40;99.90;;;;;;4989819;28;20183;-67
2021/08/08 04:33:45;;;;;;;5.13;2.60;;;13.50;99.90;;;;;;4994910;28;20274;-66
2021/08/08 04:36:10;;;;;;;3.07;2.17;;;13.50;99.90;;;;;;4995034;28;20179;-66
2021/08/08 04:38:36;;;;;;;2.90;2.33;;;13.60;99.90;;;;;;4994725;28;20186;-66
2021/08/08 04:41:02;;;;;;;5.50;1.90;;;13.60;99.90;;;;;;4994978;28;20172;-66
2021/08/08 04:43:28;;;;;;;2.80;1.80;;;13.70;99.90;;;;;;4995179;28;20688;-66
2021/08/08 04:45:54;;;;;;;2.70;2.50;;;13.70;99.90;;;;;;4994768;28;20163;-66
2021/08/08 04:48:19;;;;;;;2.63;2.20;;;13.80;99.90;;;;;;4995095;28;20415;-66
2021/08/08 04:50:45;;;;;;;3.00;1.83;;;13.80;99.90;;;;;;4994508;28;20179;-66
2021/08/08 04:53:18;;;;;;;4.40;2.03;;;13.90;99.90;;;;;;4994593;28;20282;-66
2021/08/08 04:55:44;;;;;;;2.67;2.13;;;14.00;99.90;;;;;;4994310;28;20721;-66
2021/08/08 04:58:10;;;;;;;2.80;1.97;;;14.10;99.90;;;;;;4994435;28;20473;-66
2021/08/08 05:00:36;;;;;;;3.23;2.03;;;14.20;99.90;;;;;;4994222;28;20804;-67
2021/08/08 05:03:02;;;;;;;2.30;2.00;;;14.40;99.90;;;;;;4994439;28;20188;-66
2021/08/08 05:05:28;;;;;;;5.20;2.00;;;14.40;99.90;;;;;;4994406;28;20208;-66
2021/08/08 05:07:54;;;;;;;2.70;2.07;;;14.50;99.90;;;;;;4994384;28;20423;-65
2021/08/08 05:10:24;;;;;;;5.93;2.00;;;14.60;99.90;;;;;;4994040;28;20498;-66
2021/08/08 05:12:50;;;;;;;2.00;1.70;;;14.70;99.90;;;;;;4994126;28;20455;-66
2021/08/08 05:15:16;;;;;;;2.00;1.90;;;14.80;99.90;;;;;;4994213;28;20494;-67
2021/08/08 05:17:41;;;;;;;4.27;2.13;;;14.80;99.90;;;;;;4994214;28;20422;-66
2021/08/08 05:20:08;;;;;;;7.00;1.90;;;14.90;99.90;;;;;;4993847;28;20179;-66
2021/08/08 05:22:34;;;;;;;2.90;1.87;;;15.10;99.90;;;;;;4994081;28;20570;-66
2021/08/08 05:24:59;;;;;;;1.70;1.53;;;15.20;99.90;;;;;;4994043;28;20454;-66
2021/08/08 05:27:25;;;;;;;1.73;1.60;;;15.30;99.90;;;;;;4993886;28;20171;-67
2021/08/08 05:29:50;;;;;;;4.80;1.90;;;15.50;99.90;;;;;;4988561;28;20233;-66
2021/08/08 05:32:16;;;;;;;4.20;3.70;;;15.60;99.90;;;;;;4974450;28;20173;-66
2021/08/08 05:34:41;;;;;;;2.90;1.97;;;15.80;99.90;;;;;;4974468;28;20186;-66
2021/08/08 05:37:07;;;;;;;3.17;2.47;;;16.00;99.90;;;;;;4974446;28;20204;-66
2021/08/08 05:39:32;;;;;;;5.60;2.20;;;16.10;99.90;;;;;;4974083;28;20173;-66
2021/08/08 05:41:58;;;;;;;1.50;1.40;;;16.10;99.90;;;;;;4974330;28;20188;-66
2021/08/08 05:44:23;;;;;;;1.57;1.43;;;16.20;99.90;;;;;;4974013;28;20211;-67
2021/08/08 05:46:49;;;;;;;1.70;1.33;;;16.20;99.90;;;;;;4974265;28;20592;-66
2021/08/08 05:49:15;;;;;;;5.37;1.33;;;16.30;99.90;;;;;;4973932;28;20195;-66
2021/08/08 05:51:41;;;;;;;1.93;1.83;;;16.40;99.90;;;;;;4974206;28;20173;-66
2021/08/08 05:54:07;;;;;;;1.73;1.47;;;16.50;99.90;;;;;;4974048;28;20549;-66
2021/08/08 05:56:32;;;;;;;2.30;1.40;;;16.40;99.90;;;;;;4974044;28;20434;-67
2021/08/08 05:58:58;;;;;;;2.93;1.70;;;16.50;99.90;;;;;;4973670;28;20420;-66
2021/08/08 06:01:23;;;;;;;4.17;1.20;;;16.70;99.90;;;;;;4974440;28;20168;-66
2021/08/08 06:03:49;;;;;;;3.80;2.00;;;16.80;99.90;;;;;;4973752;28;20569;-66
2021/08/08 06:06:14;;;;;;;1.40;1.30;;;17.10;99.90;;;;;;4973935;28;20176;-65
2021/08/08 06:08:40;;;;;;;3.27;1.33;;;17.20;99.90;;;;;;4972970;28;20172;-65
2021/08/08 06:11:06;;;;;;;1.97;1.10;;;17.30;99.90;;;;;;4973742;28;20178;-66
2021/08/08 06:13:32;;;;;;;4.33;1.40;;;17.40;99.90;;;;;;4973542;28;20206;-66
2021/08/08 06:15:57;;;;;;;3.30;1.30;;;17.50;99.90;;;;;;4973789;28;20209;-66
2021/08/08 06:18:23;;;;;;;1.27;1.10;;;17.70;99.90;;;;;;4973592;28;20187;-67
2021/08/08 06:20:48;;;;;;;1.37;1.27;;;17.90;99.90;;;;;;4973628;28;20176;-66
2021/08/08 06:23:14;;;;;;;1.37;1.27;;;18.10;99.90;;;;;;4973621;28;20279;-66
2021/08/08 06:25:40;;;;;;;1.57;1.47;;;18.20;99.90;;;;;;4973589;28;20250;-66
2021/08/08 06:28:05;;;;;;;2.00;1.17;;;18.20;99.90;;;;;;4973519;28;20172;-66
2021/08/08 06:30:31;;;;;;;1.27;1.17;;;18.30;99.90;;;;;;4983644;28;20225;-66
2021/08/08 06:32:56;;;;;;;2.60;1.50;;;18.50;99.90;;;;;;4993136;28;20190;-66
2021/08/08 06:35:22;;;;;;;3.90;2.60;;;18.70;99.90;;;;;;4992883;28;20180;-67
2021/08/08 06:37:47;;;;;;;2.70;1.60;;;18.90;99.90;;;;;;4992866;28;20752;-66
2021/08/08 06:40:13;;;;;;;1.97;1.23;;;19.00;99.90;;;;;;4992583;28;20663;-66
2021/08/08 06:42:39;;;;;;;3.90;1.33;;;19.00;99.90;;;;;;4992605;28;20204;-66
2021/08/08 06:45:06;;;;;;;1.77;1.67;;;19.10;99.90;;;;;;4992753;28;20486;-67
2021/08/08 06:47:31;;;;;;;3.03;1.80;;;19.10;99.90;;;;;;4992790;28;20589;-66
2021/08/08 06:49:57;;;;;;;2.73;1.80;;;19.30;99.90;;;;;;4992328;28;20474;-66
2021/08/08 06:52:23;;;;;;;1.63;1.50;;;19.40;99.90;;;;;;4992652;28;20663;-65
2021/08/08 06:54:48;;;;;;;3.47;2.20;;;19.30;99.90;;;;;;4992703;28;20183;-66
2021/08/08 06:57:28;;;;;;;2.23;1.53;;;19.40;99.90;;;;;;4992514;28;20268;-66
2021/08/08 06:59:54;;;;;;;3.10;1.30;;;19.60;99.90;;;;;;4992517;28;20189;-67
2021/08/08 07:02:21;;;;;;;3.00;1.60;;;19.80;99.90;;;;;;4992618;28;20900;-66
2021/08/08 07:04:47;;;;;;;1.67;1.57;;;20.10;99.90;;;;;;4992445;28;20450;-66
2021/08/08 07:07:12;;;;;;;3.00;1.80;;;20.00;99.90;;;;;;4992505;28;20423;-66
2021/08/08 07:09:38;;;;;;;1.80;1.60;;;19.90;99.90;;;;;;4992227;28;20419;-65
2021/08/08 07:12:04;;;;;;;4.87;1.43;;;20.00;99.90;;;;;;4992504;28;20172;-66
2021/08/08 07:14:33;;;;;;;1.57;1.47;;;19.80;99.90;;;;;;4992328;28;20242;-66
2021/08/08 07:16:59;;;;;;;2.10;1.60;;;19.50;99.90;;;;;;4992511;28;20262;-65
2021/08/08 07:19:25;;;;;;;2.90;1.50;;;19.80;99.90;;;;;;4993587;28;21038;-66
2021/08/08 07:21:52;;;;;;;3.03;1.53;;;20.00;99.90;;;;;;4996374;28;20171;-66
2021/08/08 07:24:18;;;;;;;3.00;1.50;;;20.10;99.90;;;;;;4996113;28;20502;-66
2021/08/08 07:26:43;;;;;;;4.70;1.40;;;20.10;99.90;;;;;;4996203;28;20471;-65
2021/08/08 07:29:09;;;;;;;2.97;1.40;;;19.90;99.90;;;;;;4996080;28;20199;-66
2021/08/08 07:31:35;;;;;;;2.03;1.30;;;20.00;99.90;;;;;;4977157;28;20255;-66
2021/08/08 07:34:00;;;;;;;2.30;1.40;;;19.80;99.90;;;;;;4976659;28;20525;-67
2021/08/08 07:36:26;;;;;;;3.37;1.20;;;20.00;99.90;;;;;;4976716;28;20176;-65
2021/08/08 07:38:51;;;;;;;2.30;1.37;;;20.10;99.90;;;;;;4976208;28;20183;-66
2021/08/08 07:41:17;;;;;;;1.30;1.20;;;20.00;99.90;;;;;;4959187;28;20180;-66
2021/08/08 07:43:42;;;;;;;1.70;1.50;;;20.10;99.90;;;;;;4976293;28;20200;-66
2021/08/08 07:46:08;;;;;;;2.73;2.00;;;20.00;99.90;;;;;;4976434;28;20227;-65
2021/08/08 07:48:33;;;;;;;2.20;1.60;;;20.50;99.90;;;;;;4976037;28;20226;-65
2021/08/08 07:50:59;;;;;;;3.93;1.43;;;20.20;99.90;;;;;;4976634;28;20179;-65
2021/08/08 07:53:25;;;;;;;2.30;1.70;;;20.10;99.90;;;;;;4958786;28;20216;-65
2021/08/08 07:55:54;;;;;;;1.67;1.57;;;20.10;99.90;;;;;;4976314;28;20227;-66
2021/08/08 07:58:20;;;;;;;1.80;1.33;;;20.40;99.90;;;;;;4976013;28;20672;-65
2021/08/08 08:00:45;;;;;;;1.73;1.50;;;20.40;99.90;;;;;;4976072;28;20423;-66
2021/08/08 08:03:11;;;;;;;3.93;1.20;;;20.50;99.90;;;;;;4958936;28;20502;-66
2021/08/08 08:05:37;;;;;;;2.00;1.80;;;21.20;99.90;;;;;;4976008;28;20724;-65
2021/08/08 08:08:03;;;;;;;1.70;1.43;;;21.60;99.90;;;;;;4975958;28;20173;-66
2021/08/08 08:10:30;;;;;;;2.10;1.47;;;21.30;99.90;;;;;;4976007;28;20165;-66
2021/08/08 08:12:55;;;;;;;2.70;1.73;;;21.30;99.90;;;;;;4958449;28;20204;-65
2021/08/08 08:15:21;;;;;;;2.30;1.43;;;21.80;99.90;;;;;;4975931;28;20427;-65
2021/08/08 08:17:50;;;;;;;2.50;1.80;;;21.90;99.90;;;;;;4975950;28;20213;-66
2021/08/08 08:20:15;;;;;;;2.33;1.57;;;21.80;99.90;;;;;;4976031;28;20315;-66
2021/08/08 08:22:42;;;;;;;3.57;1.70;;;22.20;99.90;;;;;;4975545;28;20483;-66
2021/08/08 08:25:08;;;;;;;2.03;1.50;;;22.70;99.90;;;;;;4975719;28;20281;-66
2021/08/08 08:27:34;;;;;;;2.97;1.57;;;23.00;99.90;;;;;;4976158;28;20428;-66
2021/08/08 08:29:59;;;;;;;4.57;1.57;;;22.90;99.90;;;;;;4981422;28;20986;-66
2021/08/08 08:32:25;;;;;;;3.70;1.30;;;22.40;99.90;;;;;;4994255;28;20176;-66
2021/08/08 08:34:50;;;;;;;2.77;1.37;;;22.60;99.90;;;;;;4994955;28;20607;-66
2021/08/08 08:37:16;;;;;;;4.10;1.67;;;22.90;99.90;;;;;;4995002;28;20526;-66
2021/08/08 08:39:42;;;;;;;2.70;1.30;;;23.50;99.90;;;;;;4994668;28;20175;-66
2021/08/08 08:42:10;;;;;;;1.87;1.30;;;23.90;99.90;;;;;;4994967;28;20928;-65
2021/08/08 08:44:36;;;;;;;2.40;1.50;;;24.20;99.90;;;;;;4994991;28;20199;-65
2021/08/08 08:47:02;;;;;;;1.70;1.60;;;23.80;99.90;;;;;;4994821;28;20474;-65
2021/08/08 08:49:29;;;;;;;2.70;1.63;;;22.60;99.90;;;;;;4994432;28;20597;-66
2021/08/08 08:52:03;;;;;;;2.60;2.10;;;21.90;99.90;;;;;;4994703;28;20505;-66
2021/08/08 08:54:31;;;;;;;3.50;1.77;;;21.70;99.90;;;;;;4994641;28;20926;-66
2021/08/08 08:56:59;;;;;;;3.30;1.83;;;21.20;99.90;;;;;;4994601;28;20418;-66
2021/08/08 08:59:25;;;;;;;1.80;1.70;;;20.70;99.90;;;;;;4994564;28;20923;-67
2021/08/08 09:01:52;;;;;;;2.30;2.10;;;20.70;99.90;;;;;;4994478;28;20418;-66
2021/08/08 09:04:17;;;;;;;2.63;2.00;;;20.80;99.90;;;;;;4994228;28;21026;-65
2021/08/08 09:06:43;;;;;;;3.03;2.10;;;20.80;99.90;;;;;;4994382;28;20506;-66
2021/08/08 09:09:09;;;;;;;2.57;1.70;;;21.10;99.90;;;;;;4994091;28;20239;-66
2021/08/08 09:11:42;;;;;;;1.60;1.37;;;21.60;99.90;;;;;;4994326;28;20474;-66
2021/08/08 09:14:10;;;;;;;2.40;2.20;;;22.20;99.90;;;;;;4994182;28;20684;-66
2021/08/08 09:16:40;;;;;;;1.63;1.53;;;22.60;99.90;;;;;;4994131;28;20430;-67
2021/08/08 09:19:15;;;;;;;1.90;1.40;;;23.30;99.90;;;;;;4994144;28;20489;-66
2021/08/08 09:21:43;;;;;;;1.83;1.63;;;23.70;99.90;;;;;;4994222;28;20472;-66
2021/08/08 09:24:09;;;;;;;1.50;1.30;;;23.70;99.90;;;;;;4993946;28;21058;-66
2021/08/08 09:26:37;;;;;;;2.13;1.93;;;23.90;99.90;;;;;;4994038;28;20490;-66
2021/08/08 09:29:22;;;;;;;2.57;1.70;;;24.30;99.90;;;;;;4976159;28;20645;-67
2021/08/08 09:31:49;;;;;;;2.60;1.47;;;24.60;99.90;;;;;;4937576;29;20429;-67
2021/08/08 09:34:24;;;;;;;1.47;1.20;;;25.10;99.90;;;;;;4955114;28;20531;-67
2021/08/08 09:36:51;;;;;;;1.83;1.30;;;24.70;99.90;;;;;;4955207;29;20563;-66
2021/08/08 09:39:26;;;;;;;1.60;1.50;;;24.70;99.90;;;;;;4955004;29;20444;-66
2021/08/08 09:42:02;;;;;;;1.93;1.53;;;24.70;99.90;;;;;;4954712;28;20432;-65
2021/08/08 09:44:28;;;;;;;2.93;1.67;;;24.50;99.70;;;;;;4954570;28;20551;-66
2021/08/08 09:46:57;;;;;;;2.03;1.70;;;24.20;99.20;;;;;;4954888;29;20512;-66
2021/08/08 09:49:24;;;;;;;1.43;1.30;;;24.30;99.90;;;;;;4954626;29;20169;-66
2021/08/08 09:51:51;;;;;;;2.20;1.53;;;25.00;99.70;;;;;;4954932;29;20588;-66
2021/08/08 09:54:17;;;;;;;1.87;1.77;;;25.30;98.70;;;;;;4954686;28;20579;-66
2021/08/08 09:56:43;;;;;;;2.10;1.77;;;25.10;97.80;;;;;;4954799;29;20421;-66
2021/08/08 09:59:09;;;;;;;1.70;1.60;;;24.70;98.20;;;;;;4954415;29;20420;-66
2021/08/08 10:01:40;;;;;;;6.77;1.93;;;24.80;98.20;;;;;;4954783;29;20227;-66
2021/08/08 10:04:06;;;;;;;2.17;1.67;;;24.80;98.20;;;;;;4954543;28;20200;-66
2021/08/08 10:06:33;;;;;;;5.03;1.47;;;24.90;98.60;;;;;;4955046;29;20424;-66
2021/08/08 10:09:00;;;;;;;2.30;1.53;;;25.00;98.30;;;;;;4954906;29;20421;-66
2021/08/08 10:11:27;;;;;;;1.87;1.77;;;24.70;98.10;;;;;;4955210;29;20420;-67
2021/08/08 10:14:01;;;;;;;1.97;1.47;;;24.90;98.50;;;;;;5007144;23;20493;-68
2021/08/08 10:16:36;;;;;;;2.50;1.60;;;25.00;97.60;;;;;;5005757;28;20417;-68
2021/08/08 10:19:03;;;;;;;2.10;1.80;;;25.30;97.80;;;;;;5012326;28;20417;-68
2021/08/08 10:21:33;;;;;;;2.43;1.60;;;25.30;96.60;;;;;;5012701;28;20517;-69
2021/08/08 10:24:06;;;;;;;2.53;1.93;;;25.00;96.50;;;;;;5012559;28;20457;-68
2021/08/08 10:26:31;;;;;;;1.83;1.50;;;25.00;95.90;;;;;;4994922;28;20442;-68
2021/08/08 10:28:58;;;;;;;4.27;2.70;;;25.80;95.90;;;;;;5012201;28;20825;-69
2021/08/08 10:31:25;;;;;;;2.83;1.43;;;27.20;93.90;;;;;;4994743;28;20197;-69
2021/08/08 10:33:56;;;;;;;2.17;1.40;;;27.70;93.10;;;;;;4992749;28;20441;-69
2021/08/08 10:36:24;;;;;;;2.73;1.40;;;28.40;91.70;;;;;;4992938;28;20423;-69
2021/08/08 10:39:06;;;;;;;3.13;2.07;;;28.10;90.80;;;;;;4992559;28;20422;-68
2021/08/08 10:41:32;;;;;;;3.07;2.77;;;27.20;91.50;;;;;;4992902;28;20423;-68
2021/08/08 10:44:05;;;;;;;2.03;1.57;;;26.00;92.30;;;;;;4975046;28;20512;-68
2021/08/08 10:46:41;;;;;;;3.47;2.73;;;25.80;92.60;;;;;;4992858;28;20168;-68
2021/08/08 10:49:07;;;;;;;2.83;1.90;;;25.20;93.30;;;;;;4992438;28;20422;-67
2021/08/08 10:51:32;;;;;;;2.03;1.87;;;24.50;93.50;;;;;;4992752;28;21073;-69
2021/08/08 10:54:04;;;;;;;2.00;1.77;;;24.50;94.70;;;;;;4992323;28;20196;-68
2021/08/08 10:56:40;;;;;;;2.77;1.80;;;24.90;93.80;;;;;;4992635;28;20480;-69
2021/08/08 10:59:16;;;;;;;2.77;1.83;;;26.40;93.10;;;;;;4992203;28;20441;-69
2021/08/08 11:01:42;;;;;;;2.00;1.30;;;27.70;91.20;;;;;;4992923;28;20418;-70
2021/08/08 11:04:08;;;;;;;1.77;1.47;;;28.90;88.10;;;;;;4992434;28;20541;-69
2021/08/08 11:06:36;;;;;;;2.50;1.50;;;29.60;83.50;;;;;;4992535;28;20991;-69
2021/08/08 11:09:04;;;;;;;2.00;1.47;;;29.80;80.10;;;;;;4992082;28;20419;-69
2021/08/08 11:11:34;;;;;;;2.43;1.80;;;30.00;77.90;;;;;;4975011;28;20462;-69
2021/08/08 11:14:12;;;;;;;2.10;1.90;;;30.60;76.60;;;;;;4992403;28;20461;-68
2021/08/08 11:16:39;;;;;;;1.73;1.30;;;29.70;78.30;;;;;;4992541;28;20797;-67
2021/08/08 11:19:05;;;;;;;1.30;1.20;;;30.60;75.40;;;;;;4992148;28;20787;-68
2021/08/08 11:21:30;;;;;;;1.60;1.50;;;31.60;71.50;;;;;;4992330;28;20430;-67
2021/08/08 11:23:59;;;;;;;1.70;1.50;;;29.10;71.80;;;;;;4992267;28;20263;-68
2021/08/08 11:26:26;;;;;;;1.93;1.60;;;27.80;74.30;;;;;;4992449;28;20255;-68
2021/08/08 11:28:58;;;;;;;1.70;1.60;;;26.60;76.70;;;;;;4992033;28;20446;-67
2021/08/08 11:31:26;;;;;;;2.57;1.67;;;25.60;82.30;;;;;;4974884;28;20419;-67
2021/08/08 11:34:04;;;;;;;2.77;1.50;;;25.60;82.50;;;;;;4972853;28;20439;-67
2021/08/08 11:36:38;;;;;;;2.60;2.00;;;25.80;83.40;;;;;;4973080;28;20481;-68
2021/08/08 11:39:06;;;;;;;2.40;1.70;;;26.40;83.10;;;;;;4972709;28;20511;-67
2021/08/08 11:41:32;;;;;;;1.90;1.80;;;27.00;78.90;;;;;;4972963;28;20420;-68
2021/08/08 11:44:13;;;;;;;2.93;1.80;;;27.40;80.40;;;;;;4972625;28;20455;-67
2021/08/08 11:46:48;;;;;;;4.00;3.03;;;27.60;76.70;;;;;;4972705;28;20937;-67
2021/08/08 11:49:21;;;;;;;2.43;1.93;;;27.50;77.10;;;;;;4972473;28;20423;-67
2021/08/08 11:52:00;;;;;;;1.60;1.50;;;27.20;78.60;;;;;;4972770;28;20420;-67
2021/08/08 11:54:27;;;;;;;1.87;1.77;;;27.90;78.30;;;;;;4972680;28;20435;-67
2021/08/08 11:56:54;;;;;;;1.57;1.47;;;29.10;75.60;;;;;;4972653;28;20925;-68
2021/08/08 11:59:34;;;;;;;1.83;1.40;;;29.10;73.50;;;;;;4972217;28;20455;-67
2021/08/08 12:02:05;;;;;;;2.10;1.30;;;27.90;74.50;;;;;;4972590;28;20450;-67
2021/08/08 12:04:33;;;;;;;2.10;1.60;;;27.00;75.90;;;;;;4972578;28;20470;-67
2021/08/08 12:06:59;;;;;;;2.03;1.30;;;25.80;79.20;;;;;;4957456;28;20428;-67
2021/08/08 12:09:25;;;;;;;1.17;1.07;;;25.00;79.20;;;;;;4975804;28;20912;-67
2021/08/08 12:11:54;;;;;;;4.53;1.27;;;24.20;79.10;;;;;;4975989;28;20470;-68
2021/08/08 12:14:44;;;;;;;1.90;1.20;;;23.40;80.20;;;;;;4975820;28;20216;-66
2021/08/08 12:17:17;;;;;;;0.90;0.90;;;23.80;80.80;;;;;;4975949;28;20479;-67
2021/08/08 12:19:48;;;;;;;1.77;1.10;;;26.00;76.90;;;;;;4975587;28;20420;-67
2021/08/08 12:22:19;;;;;;;0.93;0.90;;;28.30;72.70;;;;;;4975845;28;20908;-67
2021/08/08 12:24:50;;;;;;;1.63;1.20;;;29.40;67.10;;;;;;4975672;28;20467;-67
2021/08/08 12:27:28;;;;;;;1.20;1.10;;;28.00;68.90;;;;;;4976089;28;20786;-67
2021/08/08 12:29:57;;;;;;;3.10;1.20;;;27.10;70.90;;;;;;4981174;28;20446;-69
2021/08/08 12:32:23;;;;;;;1.10;1.10;;;29.10;68.50;;;;;;4995042;28;20459;-67
2021/08/08 12:34:50;;;;;;;1.87;1.10;;;30.30;65.90;;;;;;4994938;28;20474;-67
2021/08/08 12:37:20;;;;;;;1.00;1.00;;;30.90;63.20;;;;;;4994985;28;20172;-68
2021/08/08 12:39:46;;;;;;;2.40;1.57;;;30.40;61.60;;;;;;4994803;28;20801;-67
2021/08/08 12:42:17;;;;;;;1.40;1.30;;;31.50;60.40;;;;;;4994888;28;20513;-67
2021/08/08 12:44:43;;;;;;;1.50;1.40;;;31.90;60.30;;;;;;4994714;28;20451;-69
2021/08/08 12:47:10;;;;;;;2.03;1.70;;;33.00;58.50;;;;;;4994792;28;20415;-68